Time;durP1;ratioP1;P1;durP2;ratioP2;P2;SDS_P1;SDS_P2;PMS_P1;PMS_P2;Temp;Humidity;BMP_temperature;BMP_pressure;BME280_temperature;BME280_humidity;BME280_pressure;Samples;Min_cycle;Max_cycle;Signal;HPM_P1;HPM_P2
2021/11/26 00:00:54;;;;;;;;;;;6.40;55.30;;;;;;4374854;32;19984;-44
2021/11/26 00:03:21;;;;;;;;;;;6.30;55.40;;;;;;4374897;32;20499;-45
2021/11/26 00:05:47;;;;;;;;;;;6.30;55.50;;;;;;4361078;32;20071;-44
2021/11/26 00:08:13;;;;;;;;;;;6.30;55.60;;;;;;4374553;32;20531;-45
2021/11/26 00:10:39;;;;;;;;;;;6.30;55.90;;;;;;4374988;32;19962;-43
2021/11/26 00:13:09;;;;;;;;;;;6.30;55.90;;;;;;4374632;32;19997;-46
2021/11/26 00:15:39;;;;;;;;;;;6.30;56.10;;;;;;4374341;32;19989;-44
2021/11/26 00:18:11;;;;;;;;;;;6.30;56.20;;;;;;4374813;32;19989;-42
2021/11/26 00:20:38;;;;;;;;;;;6.30;56.20;;;;;;4366549;32;19973;-44
2021/11/26 00:23:04;;;;;;;;;;;6.30;56.30;;;;;;4359950;32;19955;-44
2021/11/26 00:25:31;;;;;;;;;;;6.30;56.40;;;;;;4345477;32;19977;-40
2021/11/26 00:27:57;;;;;;;;;;;6.30;56.50;;;;;;4346131;32;20034;-43
2021/11/26 00:30:23;;;;;;;;;;;6.40;56.60;;;;;;4345786;32;19966;-44
2021/11/26 00:32:49;;;;;;;;;;;6.40;56.60;;;;;;4359299;32;20071;-44
2021/11/26 00:35:16;;;;;;;;;;;6.40;56.70;;;;;;4359696;32;20045;-43
2021/11/26 00:37:42;;;;;;;;;;;6.40;56.80;;;;;;4359590;32;20352;-44
2021/11/26 00:40:08;;;;;;;;;;;6.40;56.90;;;;;;4359416;32;20407;-44
2021/11/26 00:42:34;;;;;;;;;;;6.40;56.80;;;;;;4359447;32;20050;-44
2021/11/26 00:45:00;;;;;;;;;;;6.40;56.80;;;;;;4359614;32;20498;-36
2021/11/26 00:47:27;;;;;;;;;;;6.40;56.80;;;;;;4359530;32;19970;-42
2021/11/26 00:49:53;;;;;;;;;;;6.40;56.80;;;;;;4359239;32;19978;-44
2021/11/26 00:52:19;;;;;;;;;;;6.40;56.80;;;;;;4359592;32;20051;-44
2021/11/26 00:54:46;;;;;;;;;;;6.40;56.70;;;;;;4359188;32;20415;-45
2021/11/26 00:57:12;;;;;;;;;;;6.40;56.50;;;;;;4359375;32;20371;-44
2021/11/26 00:59:38;;;;;;;;;;;6.50;56.40;;;;;;4359408;32;19958;-44
2021/11/26 01:02:05;;;;;;;;;;;6.50;56.40;;;;;;4358955;32;20026;-43
2021/11/26 01:04:32;;;;;;;;;;;6.50;56.20;;;;;;4359409;32;19972;-43
2021/11/26 01:06:58;;;;;;;;;;;6.50;56.00;;;;;;4360032;32;19997;-44
2021/11/26 01:09:24;;;;;;;;;;;6.50;56.10;;;;;;4358961;32;20083;-45
2021/11/26 01:11:50;;;;;;;;;;;6.50;56.00;;;;;;4358945;32;19962;-45
2021/11/26 01:14:17;;;;;;;;;;;6.50;55.90;;;;;;4359145;32;19980;-43
2021/11/26 01:16:43;;;;;;;;;;;6.50;55.80;;;;;;4358647;32;19988;-43
2021/11/26 01:19:09;;;;;;;;;;;6.50;55.90;;;;;;4359040;32;19979;-45
2021/11/26 01:21:35;;;;;;;;;;;6.50;55.90;;;;;;4373225;32;20045;-43
2021/11/26 01:24:01;;;;;;;;;;;6.50;55.90;;;;;;4374470;32;19974;-45
2021/11/26 01:26:27;;;;;;;;;;;6.50;55.70;;;;;;4373438;32;19984;-42
2021/11/26 01:28:54;;;;;;;;;;;6.60;55.60;;;;;;4360052;32;20584;-44
2021/11/26 01:31:21;;;;;;;;;;;6.60;55.50;;;;;;4373513;32;20393;-46
2021/11/26 01:33:47;;;;;;;;;;;6.60;55.40;;;;;;4373715;32;19998;-45
2021/11/26 01:36:13;;;;;;;;;;;6.60;55.30;;;;;;4373398;32;19986;-45
2021/11/26 01:38:39;;;;;;;;;;;6.70;55.20;;;;;;4373832;32;19980;-45
2021/11/26 01:41:09;;;;;;;;;;;6.70;55.00;;;;;;4373264;32;20029;-47
2021/11/26 01:43:35;;;;;;;;;;;6.70;54.90;;;;;;4373198;32;20433;-44
2021/11/26 01:46:09;;;;;;;;;;;6.70;55.00;;;;;;4359759;32;19981;-45
2021/11/26 01:48:36;;;;;;;;;;;6.80;55.00;;;;;;4359928;32;20041;-42
2021/11/26 01:51:02;;;;;;;;;;;6.80;55.00;;;;;;4373619;32;19978;-48
2021/11/26 01:53:29;;;;;;;;;;;6.80;55.00;;;;;;4373195;32;20479;-44
2021/11/26 01:55:55;;;;;;;;;;;6.80;55.10;;;;;;4373362;32;20058;-47
2021/11/26 01:58:21;;;;;;;;;;;6.80;55.20;;;;;;4373298;32;20410;-42
2021/11/26 02:00:48;;;;;;;;;;;6.80;55.40;;;;;;4373358;32;19993;-45
2021/11/26 02:03:14;;;;;;;;;;;6.70;55.50;;;;;;4373426;32;20462;-45
2021/11/26 02:05:40;;;;;;;;;;;6.70;55.70;;;;;;4359695;32;19969;-44
2021/11/26 02:08:07;;;;;;;;;;;6.70;55.80;;;;;;4373394;32;20403;-44
2021/11/26 02:10:33;;;;;;;;;;;6.70;55.80;;;;;;4373797;32;19959;-46
2021/11/26 02:13:00;;;;;;;;;;;6.70;55.90;;;;;;4373352;32;20041;-43
2021/11/26 02:15:28;;;;;;;;;;;6.60;56.10;;;;;;4373293;32;20020;-43
2021/11/26 02:17:55;;;;;;;;;;;6.60;56.10;;;;;;4359785;32;19990;-43
2021/11/26 02:20:30;;;;;;;;;;;6.60;56.10;;;;;;4366635;32;19980;-45
2021/11/26 02:22:57;;;;;;;;;;;6.60;56.30;;;;;;4358188;32;20028;-45
2021/11/26 02:25:24;;;;;;;;;;;6.60;56.30;;;;;;4358276;32;20066;-44
2021/11/26 02:27:52;;;;;;;;;;;6.60;56.50;;;;;;4358454;32;19974;-42
2021/11/26 02:30:19;;;;;;;;;;;6.60;56.40;;;;;;4358380;32;20039;-45
2021/11/26 02:32:50;;;;;;;;;;;6.50;56.30;;;;;;4358222;32;19963;-44
2021/11/26 02:35:17;;;;;;;;;;;6.50;56.10;;;;;;4358510;32;20069;-44
2021/11/26 02:37:43;;;;;;;;;;;6.60;56.10;;;;;;4357969;32;20004;-44
2021/11/26 02:40:11;;;;;;;;;;;6.50;56.10;;;;;;4357924;32;19988;-43
2021/11/26 02:42:38;;;;;;;;;;;6.50;56.00;;;;;;4358331;32;20520;-37
2021/11/26 02:45:06;;;;;;;;;;;6.50;56.00;;;;;;4344645;32;19970;-45
2021/11/26 02:47:32;;;;;;;;;;;6.60;56.10;;;;;;4358471;32;20048;-44
2021/11/26 02:49:58;;;;;;;;;;;6.50;56.20;;;;;;4357802;32;20033;-44
2021/11/26 02:52:24;;;;;;;;;;;6.50;56.30;;;;;;4344010;32;19985;-43
2021/11/26 02:54:51;;;;;;;;;;;6.50;56.50;;;;;;4358156;32;19981;-43
2021/11/26 02:57:17;;;;;;;;;;;6.50;56.70;;;;;;4358304;32;20515;-44
2021/11/26 02:59:43;;;;;;;;;;;6.40;56.80;;;;;;4357935;32;19963;-44
2021/11/26 03:02:10;;;;;;;;;;;6.40;56.90;;;;;;4357988;32;19979;-41
2021/11/26 03:04:36;;;;;;;;;;;6.40;57.10;;;;;;4361088;32;20461;-44
2021/11/26 03:07:04;;;;;;;;;;;6.40;57.20;;;;;;4347158;32;19985;-44
2021/11/26 03:09:30;;;;;;;;;;;6.40;57.40;;;;;;4347227;32;19967;-43
2021/11/26 03:11:57;;;;;;;;;;;6.40;57.50;;;;;;4360817;32;19962;-43
2021/11/26 03:14:23;;;;;;;;;;;6.40;57.70;;;;;;4346700;32;20421;-44
2021/11/26 03:16:49;;;;;;;;;;;6.40;57.70;;;;;;4346542;32;20038;-43
2021/11/26 03:19:16;;;;;;;;;;;6.40;57.70;;;;;;4360700;32;19966;-43
2021/11/26 03:21:42;;;;;;;;;;;6.40;57.70;;;;;;4374978;32;19974;-39
2021/11/26 03:24:08;;;;;;;;;;;6.40;57.70;;;;;;4375984;32;19973;-46
2021/11/26 03:26:35;;;;;;;;;;;6.50;57.70;;;;;;4349230;32;20001;-45
2021/11/26 03:29:01;;;;;;;;;;;6.50;57.70;;;;;;4361315;32;19962;-47
2021/11/26 03:31:27;;;;;;;;;;;6.50;57.70;;;;;;4375415;32;20423;-43
2021/11/26 03:33:53;;;;;;;;;;;6.50;57.80;;;;;;4375216;32;19973;-44
2021/11/26 03:36:19;;;;;;;;;;;6.50;57.80;;;;;;4375268;32;20028;-45
2021/11/26 03:38:45;;;;;;;;;;;6.50;57.90;;;;;;4375371;32;19980;-44
2021/11/26 03:41:12;;;;;;;;;;;6.50;57.80;;;;;;4375421;32;20041;-44
2021/11/26 03:43:38;;;;;;;;;;;6.50;57.80;;;;;;4361327;32;20466;-45
2021/11/26 03:46:04;;;;;;;;;;;6.50;57.90;;;;;;4375104;32;19955;-41
2021/11/26 03:48:31;;;;;;;;;;;6.50;58.10;;;;;;4375310;32;20423;-45
2021/11/26 03:50:57;;;;;;;;;;;6.40;58.20;;;;;;4374972;32;19970;-45
2021/11/26 03:53:23;;;;;;;;;;;6.40;58.30;;;;;;4374956;32;19965;-43
2021/11/26 03:55:49;;;;;;;;;;;6.40;58.40;;;;;;4374978;32;20038;-44
2021/11/26 03:58:15;;;;;;;;;;;6.40;58.40;;;;;;4375115;32;19990;-44
2021/11/26 04:00:42;;;;;;;;;;;6.40;58.50;;;;;;4374529;32;19985;-37
2021/11/26 04:03:08;;;;;;;;;;;6.40;58.60;;;;;;4375335;32;19981;-43
2021/11/26 04:05:34;;;;;;;;;;;6.40;58.80;;;;;;4375139;32;20125;-44
2021/11/26 04:08:01;;;;;;;;;;;6.40;58.90;;;;;;4374914;32;19966;-43
2021/11/26 04:10:27;;;;;;;;;;;6.30;58.80;;;;;;4374555;32;20438;-43
2021/11/26 04:12:54;;;;;;;;;;;6.30;58.90;;;;;;4374830;32;19966;-42
2021/11/26 04:15:20;;;;;;;;;;;6.30;58.90;;;;;;4374134;32;20434;-43
2021/11/26 04:17:48;;;;;;;;;;;6.30;59.00;;;;;;4374448;32;20427;-43
2021/11/26 04:20:16;;;;;;;;;;;6.40;59.20;;;;;;4368971;32;20005;-43
2021/11/26 04:22:42;;;;;;;;;;;6.30;59.20;;;;;;4346142;32;19981;-43
2021/11/26 04:25:10;;;;;;;;;;;6.30;59.20;;;;;;4359879;32;20001;-42
2021/11/26 04:27:36;;;;;;;;;;;6.40;59.20;;;;;;4333243;32;19978;-40
2021/11/26 04:30:04;;;;;;;;;;;6.40;59.10;;;;;;4345517;32;19986;-42
2021/11/26 04:32:31;;;;;;;;;;;6.40;59.10;;;;;;4359676;32;19958;-42
2021/11/26 04:34:58;;;;;;;;;;;6.50;59.00;;;;;;4359318;32;19970;-43
2021/11/26 04:37:24;;;;;;;;;;;6.50;59.00;;;;;;4345708;32;19978;-43
2021/11/26 04:39:51;;;;;;;;;;;6.50;58.90;;;;;;4345243;32;19965;-41
2021/11/26 04:42:17;;;;;;;;;;;6.50;58.90;;;;;;4345419;32;19997;-43
2021/11/26 04:44:43;;;;;;;;;;;6.60;58.80;;;;;;4359158;32;20484;-44
2021/11/26 04:47:10;;;;;;;;;;;6.60;58.70;;;;;;4359271;32;19987;-43
2021/11/26 04:49:36;;;;;;;;;;;6.60;58.70;;;;;;4359547;32;19965;-45
2021/11/26 04:52:02;;;;;;;;;;;6.60;58.70;;;;;;4359290;32;19988;-42
2021/11/26 04:54:29;;;;;;;;;;;6.60;58.70;;;;;;4345362;32;20424;-42
2021/11/26 04:56:56;;;;;;;;;;;6.60;58.70;;;;;;4359427;32;19998;-45
2021/11/26 04:59:23;;;;;;;;;;;6.60;58.70;;;;;;4345087;32;20398;-46
2021/11/26 05:01:49;;;;;;;;;;;6.60;58.70;;;;;;4358993;32;20421;-43
2021/11/26 05:04:16;;;;;;;;;;;6.60;58.80;;;;;;4359237;32;20422;-39
2021/11/26 05:06:42;;;;;;;;;;;6.60;58.80;;;;;;4359512;32;20030;-44
2021/11/26 05:09:10;;;;;;;;;;;6.50;58.80;;;;;;4359142;32;19974;-44
2021/11/26 05:11:37;;;;;;;;;;;6.60;58.90;;;;;;4358967;32;20415;-42
2021/11/26 05:14:04;;;;;;;;;;;6.60;58.90;;;;;;4345444;32;20006;-43
2021/11/26 05:16:31;;;;;;;;;;;6.50;58.80;;;;;;4344602;32;20399;-43
2021/11/26 05:18:57;;;;;;;;;;;6.60;58.80;;;;;;4358755;32;19966;-44
2021/11/26 05:21:23;;;;;;;;;;;6.50;58.80;;;;;;4371629;32;20544;-45
2021/11/26 05:23:50;;;;;;;;;;;6.50;58.90;;;;;;4373129;32;20390;-42
2021/11/26 05:26:16;;;;;;;;;;;6.50;59.00;;;;;;4359467;32;19997;-47
2021/11/26 05:28:42;;;;;;;;;;;6.50;58.90;;;;;;4359771;32;19958;-43
2021/11/26 05:31:08;;;;;;;;;;;6.60;58.90;;;;;;4373647;32;20395;-44
2021/11/26 05:33:35;;;;;;;;;;;6.60;58.80;;;;;;4373561;32;19974;-42
2021/11/26 05:36:01;;;;;;;;;;;6.60;58.80;;;;;;4373327;32;19970;-43
2021/11/26 05:38:27;;;;;;;;;;;6.60;58.90;;;;;;4373487;32;19966;-42
2021/11/26 05:40:53;;;;;;;;;;;6.70;58.90;;;;;;4373500;32;20425;-43
2021/11/26 05:43:19;;;;;;;;;;;6.70;58.80;;;;;;4326307;33;20072;-43
2021/11/26 05:45:46;;;;;;;;;;;6.70;58.60;;;;;;4326820;33;19987;-44
2021/11/26 05:48:12;;;;;;;;;;;6.70;58.60;;;;;;4326346;33;20524;-42
2021/11/26 05:50:38;;;;;;;;;;;6.70;58.50;;;;;;4326602;33;20021;-44
2021/11/26 05:53:05;;;;;;;;;;;6.70;58.50;;;;;;4314254;33;19974;-43
2021/11/26 05:55:31;;;;;;;;;;;6.80;58.50;;;;;;4326361;33;20046;-43
2021/11/26 05:57:58;;;;;;;;;;;6.70;58.40;;;;;;4326023;33;19981;-45
2021/11/26 06:00:25;;;;;;;;;;;6.70;58.30;;;;;;4325975;33;19997;-43
2021/11/26 06:02:51;;;;;;;;;;;6.70;58.40;;;;;;4326324;33;19971;-45
2021/11/26 06:05:17;;;;;;;;;;;6.70;58.20;;;;;;4326745;33;20009;-42
2021/11/26 06:07:44;;;;;;;;;;;6.70;58.20;;;;;;4326231;33;19971;-50
2021/11/26 06:10:11;;;;;;;;;;;6.70;58.20;;;;;;4326058;33;20003;-43
2021/11/26 06:12:38;;;;;;;;;;;6.70;58.00;;;;;;4325978;33;19975;-42
2021/11/26 06:15:05;;;;;;;;;;;6.70;58.10;;;;;;4364304;32;19989;-42
2021/11/26 06:17:32;;;;;;;;;;;6.70;58.00;;;;;;4372922;32;20000;-44
2021/11/26 06:19:58;;;;;;;;;;;6.70;58.00;;;;;;4368812;32;20004;-43
2021/11/26 06:22:24;;;;;;;;;;;6.70;58.00;;;;;;4344210;32;19958;-42
2021/11/26 06:24:50;;;;;;;;;;;6.70;58.00;;;;;;4357963;32;19970;-40
2021/11/26 06:27:16;;;;;;;;;;;6.60;57.90;;;;;;4344694;32;20041;-44
2021/11/26 06:29:43;;;;;;;;;;;6.70;57.80;;;;;;4357764;32;19990;-42
2021/11/26 06:32:09;;;;;;;;;;;6.70;57.80;;;;;;4358158;32;20069;-43
2021/11/26 06:34:35;;;;;;;;;;;6.70;57.60;;;;;;4357611;32;20405;-42
2021/11/26 06:37:02;;;;;;;;;;;6.70;57.50;;;;;;4358988;32;19967;-42
2021/11/26 06:39:28;;;;;;;;;;;6.70;57.40;;;;;;4360922;32;19970;-42
2021/11/26 06:41:54;;;;;;;;;;;6.70;57.40;;;;;;4361241;32;20094;-42
2021/11/26 06:44:20;;;;;;;;;;;6.70;57.30;;;;;;4361202;32;20120;-43
2021/11/26 06:46:47;;;;;;;;;;;6.80;57.60;;;;;;4361413;32;19978;-43
2021/11/26 06:49:13;;;;;;;;;;;6.80;57.20;;;;;;4361101;32;19974;-45
2021/11/26 06:51:39;;;;;;;;;;;6.70;57.20;;;;;;4346773;32;19970;-44
2021/11/26 06:54:05;;;;;;;;;;;6.70;57.30;;;;;;4346873;32;20024;-45
2021/11/26 06:56:32;;;;;;;;;;;6.70;57.10;;;;;;4347125;32;20344;-45
2021/11/26 06:59:00;;;;;;;;;;;6.70;57.20;;;;;;4360901;32;19963;-44
2021/11/26 07:01:26;;;;;;;;;;;6.70;57.30;;;;;;4360606;32;19975;-42
2021/11/26 07:03:54;;;;;;;;;;;6.80;57.30;;;;;;4346916;32;19974;-41
2021/11/26 07:06:21;;;;;;;;;;;6.80;57.20;;;;;;4360651;32;19994;-45
2021/11/26 07:08:47;;;;;;;;;;;6.80;57.10;;;;;;4360460;32;20410;-43
2021/11/26 07:11:13;;;;;;;;;;;6.80;56.70;;;;;;4360986;32;20001;-44
2021/11/26 07:13:40;;;;;;;;;;;6.80;56.50;;;;;;4360933;32;19958;-43
2021/11/26 07:16:06;;;;;;;;;;;6.80;56.60;;;;;;4360946;32;19969;-44
2021/11/26 07:18:32;;;;;;;;;;;6.80;56.50;;;;;;4346673;32;19985;-43
2021/11/26 07:20:58;;;;;;;;;;;6.80;56.20;;;;;;4335914;33;19963;-44
2021/11/26 07:23:25;;;;;;;;;;;6.90;56.20;;;;;;4345938;33;20082;-42
2021/11/26 07:25:51;;;;;;;;;;;6.90;56.20;;;;;;4345603;32;19975;-45
2021/11/26 07:28:19;;;;;;;;;;;6.90;56.20;;;;;;4345338;32;20077;-46
2021/11/26 07:30:45;;;;;;;;;;;6.90;56.00;;;;;;4331746;33;20052;-47
2021/11/26 07:33:12;;;;;;;;;;;6.90;56.10;;;;;;4345354;32;20023;-49
2021/11/26 07:35:40;;;;;;;;;;;6.90;55.90;;;;;;4345546;32;19998;-46
2021/11/26 07:38:07;;;;;;;;;;;6.90;56.00;;;;;;4345170;32;19963;-47
2021/11/26 07:40:33;;;;;;;;;;;7.00;56.20;;;;;;4345406;33;19987;-43
2021/11/26 07:42:59;;;;;;;;;;;6.90;56.20;;;;;;4345177;32;20461;-47
2021/11/26 07:45:25;;;;;;;;;;;6.90;56.20;;;;;;4345056;32;20411;-44
2021/11/26 07:47:52;;;;;;;;;;;6.90;56.20;;;;;;4345561;32;19982;-46
2021/11/26 07:50:19;;;;;;;;;;;6.80;56.00;;;;;;4344810;32;19963;-44
2021/11/26 07:52:45;;;;;;;;;;;6.90;56.20;;;;;;4344959;32;19995;-47
2021/11/26 07:55:12;;;;;;;;;;;6.90;56.20;;;;;;4345096;32;19990;-46
2021/11/26 07:57:40;;;;;;;;;;;6.80;56.20;;;;;;4344906;33;20006;-44
2021/11/26 08:00:07;;;;;;;;;;;6.80;55.90;;;;;;4345232;33;19972;-44
2021/11/26 08:02:33;;;;;;;;;;;6.80;56.00;;;;;;4331198;33;19967;-44
2021/11/26 08:05:00;;;;;;;;;;;6.80;56.00;;;;;;4344750;33;19974;-43
2021/11/26 08:07:26;;;;;;;;;;;6.80;56.00;;;;;;4344607;32;19991;-39
2021/11/26 08:09:52;;;;;;;;;;;6.70;55.90;;;;;;4344935;33;20372;-44
2021/11/26 08:12:19;;;;;;;;;;;6.80;55.90;;;;;;4331526;33;19971;-43
2021/11/26 08:14:48;;;;;;;;;;;6.70;55.80;;;;;;4345208;33;19958;-45
2021/11/26 08:17:14;;;;;;;;;;;6.80;55.70;;;;;;4344595;32;20040;-44
2021/11/26 08:19:40;;;;;;;;;;;6.70;55.70;;;;;;4348761;32;19962;-43
2021/11/26 08:22:07;;;;;;;;;;;6.80;55.60;;;;;;4374758;32;20407;-44
2021/11/26 08:24:33;;;;;;;;;;;6.80;55.40;;;;;;4374591;32;19985;-44
2021/11/26 08:26:59;;;;;;;;;;;6.70;55.40;;;;;;4374359;32;20124;-43
2021/11/26 08:29:25;;;;;;;;;;;6.80;55.50;;;;;;4374707;32;20058;-43
2021/11/26 08:31:51;;;;;;;;;;;6.80;55.30;;;;;;4374350;32;20028;-43
2021/11/26 08:34:17;;;;;;;;;;;6.70;55.30;;;;;;4360467;32;19994;-43
2021/11/26 08:36:44;;;;;;;;;;;6.80;55.20;;;;;;4374571;32;20021;-43
2021/11/26 08:39:10;;;;;;;;;;;6.80;55.00;;;;;;4374042;32;20049;-43
2021/11/26 08:41:39;;;;;;;;;;;6.70;54.70;;;;;;4374259;32;20476;-45
2021/11/26 08:44:06;;;;;;;;;;;6.80;54.60;;;;;;4374536;32;20128;-44
2021/11/26 08:46:32;;;;;;;;;;;6.80;54.70;;;;;;4348007;32;19970;-43
2021/11/26 08:48:58;;;;;;;;;;;6.80;54.70;;;;;;4360252;32;20035;-36
2021/11/26 08:51:27;;;;;;;;;;;6.80;54.60;;;;;;4374337;32;20051;-44
2021/11/26 08:53:54;;;;;;;;;;;6.80;54.60;;;;;;4373932;32;20059;-45
2021/11/26 08:56:21;;;;;;;;;;;6.80;54.00;;;;;;4373236;32;20395;-46
2021/11/26 08:58:48;;;;;;;;;;;6.80;54.10;;;;;;4373811;32;19968;-45
2021/11/26 09:01:17;;;;;;;;;;;6.70;53.80;;;;;;4373083;32;19982;-42
2021/11/26 09:03:44;;;;;;;;;;;6.70;53.60;;;;;;4374269;32;20032;-47
2021/11/26 09:06:11;;;;;;;;;;;6.70;53.50;;;;;;4373900;32;19959;-45
2021/11/26 09:08:37;;;;;;;;;;;6.70;53.70;;;;;;4373895;32;20026;-43
2021/11/26 09:11:03;;;;;;;;;;;6.70;53.70;;;;;;4373611;32;19977;-43
2021/11/26 09:13:29;;;;;;;;;;;6.70;53.70;;;;;;4373834;32;20420;-39
2021/11/26 09:15:55;;;;;;;;;;;6.70;53.60;;;;;;4373620;32;19989;-44
2021/11/26 09:18:22;;;;;;;;;;;6.80;53.50;;;;;;4374022;32;20033;-44
2021/11/26 09:20:53;;;;;;;;;;;6.80;53.20;;;;;;4364519;32;19962;-45
2021/11/26 09:23:19;;;;;;;;;;;6.80;53.00;;;;;;4345452;32;20051;-48
2021/11/26 09:25:45;;;;;;;;;;;6.80;52.90;;;;;;4344658;32;20382;-45
2021/11/26 09:28:12;;;;;;;;;;;6.80;52.80;;;;;;4358129;32;20381;-42
2021/11/26 09:30:38;;;;;;;;;;;6.80;52.90;;;;;;4345037;32;19973;-49
2021/11/26 09:33:05;;;;;;;;;;;6.80;53.00;;;;;;4358705;32;19974;-45
2021/11/26 09:35:32;;;;;;;;;;;6.90;52.90;;;;;;4358838;32;20483;-45
2021/11/26 09:38:01;;;;;;;;;;;6.90;52.70;;;;;;4345027;32;20072;-48
2021/11/26 09:40:28;;;;;;;;;;;6.90;52.40;;;;;;4358577;32;20418;-44
2021/11/26 09:42:54;;;;;;;;;;;6.90;52.50;;;;;;4358447;32;19998;-45
2021/11/26 09:45:22;;;;;;;;;;;7.00;52.50;;;;;;4357994;32;19974;-44
2021/11/26 09:47:51;;;;;;;;;;;7.10;52.30;;;;;;4358181;32;20435;-49
2021/11/26 09:50:19;;;;;;;;;;;7.10;52.40;;;;;;4358196;32;19978;-42
2021/11/26 09:52:45;;;;;;;;;;;7.20;52.00;;;;;;4358470;32;19970;-45
2021/11/26 09:55:12;;;;;;;;;;;7.30;51.80;;;;;;4358405;32;19958;-46
2021/11/26 09:57:39;;;;;;;;;;;7.40;51.50;;;;;;4358579;32;19963;-47
2021/11/26 10:00:07;;;;;;;;;;;7.50;51.50;;;;;;4358494;32;19977;-47
2021/11/26 10:02:34;;;;;;;;;;;7.60;51.50;;;;;;4357784;32;20438;-47
2021/11/26 10:05:02;;;;;;;;;;;7.60;51.10;;;;;;4344643;32;20541;-51
2021/11/26 10:07:29;;;;;;;;;;;7.70;50.90;;;;;;4344570;32;20415;-49
2021/11/26 10:10:06;;;;;;;;;;;7.70;50.50;;;;;;4358077;32;19974;-46
2021/11/26 10:12:32;;;;;;;;;;;7.70;50.40;;;;;;4357697;32;20067;-47
2021/11/26 10:14:58;;;;;;;;;;;7.70;50.40;;;;;;4358357;32;20082;-46
2021/11/26 10:17:25;;;;;;;;;;;7.70;50.20;;;;;;4358343;32;19973;-49
2021/11/26 10:19:53;;;;;;;;;;;7.70;50.10;;;;;;4361370;32;20070;-48
2021/11/26 10:22:22;;;;;;;;;;;7.80;50.10;;;;;;4373171;32;20062;-46
2021/11/26 10:25:19;;;;;;;;;;;7.80;49.90;;;;;;4373123;32;20359;-45
2021/11/26 10:27:50;;;;;;;;;;;7.80;49.70;;;;;;4371793;32;19989;-46
2021/11/26 10:30:28;;;;;;;;;;;7.80;49.70;;;;;;4359834;32;19969;-47
2021/11/26 10:33:21;;;;;;;;;;;7.80;49.70;;;;;;4373136;32;20474;-48
2021/11/26 10:35:50;;;;;;;;;;;7.70;49.70;;;;;;4364737;32;19986;-48
2021/11/26 10:38:20;;;;;;;;;;;7.70;49.80;;;;;;4359008;32;19976;-47
2021/11/26 10:40:49;;;;;;;;;;;7.70;49.70;;;;;;4373111;32;19967;-45
2021/11/26 10:43:21;;;;;;;;;;;7.60;49.70;;;;;;4373473;32;20047;-47
2021/11/26 10:59:10;;;;;;;;;;;7.50;49.80;;;;;;4372520;32;20043;-46
2021/11/26 11:01:46;;;;;;;;;;;7.50;50.00;;;;;;4358629;32;19986;-45
2021/11/26 11:04:17;;;;;;;;;;;7.50;50.20;;;;;;4372301;32;19974;-46
2021/11/26 11:06:44;;;;;;;;;;;7.60;50.30;;;;;;4372457;32;20039;-45
2021/11/26 11:09:11;;;;;;;;;;;7.60;49.70;;;;;;4372689;32;20460;-44
2021/11/26 11:11:48;;;;;;;;;;;7.60;49.50;;;;;;4372276;32;20462;-45
2021/11/26 11:14:17;;;;;;;;;;;7.70;49.40;;;;;;4358704;32;20023;-46
2021/11/26 11:16:50;;;;;;;;;;;7.70;48.90;;;;;;4372583;32;20379;-46
2021/11/26 11:19:16;;;;;;;;;;;7.60;49.00;;;;;;4372965;32;20041;-37
2021/11/26 11:21:46;;;;;;;;;;;7.50;49.10;;;;;;4340622;32;19962;-45
2021/11/26 11:24:13;;;;;;;;;;;7.40;49.10;;;;;;4344100;32;19984;-46
2021/11/26 11:26:48;;;;;;;;;;;7.40;49.20;;;;;;4345556;33;20119;-44
2021/11/26 11:29:26;;;;;;;;;;;7.30;49.20;;;;;;4345604;33;19966;-44
2021/11/26 11:31:54;;;;;;;;;;;7.20;49.40;;;;;;4345121;33;20406;-44
2021/11/26 11:34:22;;;;;;;;;;;7.10;49.60;;;;;;4345376;33;20075;-45
2021/11/26 11:36:54;;;;;;;;;;;7.10;49.80;;;;;;4345218;33;19986;-46
2021/11/26 11:39:21;;;;;;;;;;;7.10;49.90;;;;;;4345662;33;20113;-45
2021/11/26 11:41:52;;;;;;;;;;;7.10;49.70;;;;;;4345286;33;20014;-44
2021/11/26 11:44:45;;;;;;;;;;;7.10;49.40;;;;;;4345268;33;19970;-45
2021/11/26 11:47:17;;;;;;;;;;;7.10;49.40;;;;;;4344439;33;19974;-45
2021/11/26 11:50:14;;;;;;;;;;;7.10;49.60;;;;;;4345349;33;20014;-45
2021/11/26 11:53:02;;;;;;;;;;;7.10;49.50;;;;;;4343807;33;19962;-44
2021/11/26 11:55:30;;;;;;;;;;;7.00;49.50;;;;;;4344399;33;20361;-44
2021/11/26 11:58:16;;;;;;;;;;;7.00;49.60;;;;;;4344898;33;20481;-45
2021/11/26 12:00:44;;;;;;;;;;;7.00;49.50;;;;;;4343353;33;20060;-44
2021/11/26 12:03:15;;;;;;;;;;;6.90;49.60;;;;;;4345091;33;19979;-43
2021/11/26 12:05:42;;;;;;;;;;;6.90;49.50;;;;;;4344819;33;19967;-43
2021/11/26 12:08:10;;;;;;;;;;;6.80;49.70;;;;;;4345310;33;19958;-46
2021/11/26 12:10:46;;;;;;;;;;;6.70;49.90;;;;;;4345205;33;20393;-42
2021/11/26 12:13:33;;;;;;;;;;;6.70;50.00;;;;;;4342554;33;20003;-45
2021/11/26 12:16:09;;;;;;;;;;;6.70;50.00;;;;;;4342589;33;19991;-46
2021/11/26 12:18:46;;;;;;;;;;;6.60;49.90;;;;;;4342771;33;19963;-51
2021/11/26 12:21:14;;;;;;;;;;;6.60;50.00;;;;;;4319344;33;19974;-45
2021/11/26 12:28:50;;;;;;;;;;;6.40;50.50;;;;;;4327700;33;19985;-48
2021/11/26 12:31:16;;;;;;;;;;;6.30;50.70;;;;;;4327048;33;20418;-49
2021/11/26 12:33:42;;;;;;;;;;;6.30;51.00;;;;;;4314969;33;20390;-54
2021/11/26 12:36:13;;;;;;;;;;;6.30;51.20;;;;;;4327664;33;19975;-47
2021/11/26 12:38:43;;;;;;;;;;;6.20;51.40;;;;;;4327374;33;20014;-49
2021/11/26 12:41:10;;;;;;;;;;;6.20;51.60;;;;;;4327550;33;19967;-48
2021/11/26 12:43:43;;;;;;;;;;;6.10;51.70;;;;;;4328094;33;20012;-47
2021/11/26 12:46:33;;;;;;;;;;;6.10;52.00;;;;;;4329940;33;19963;-47
2021/11/26 12:49:16;;;;;;;;;;;6.10;52.10;;;;;;4329480;33;20059;-45
2021/11/26 12:51:44;;;;;;;;;;;6.00;52.20;;;;;;4329527;33;19988;-44
2021/11/26 12:54:22;;;;;;;;;;;6.00;52.30;;;;;;4329905;33;19966;-47
2021/11/26 12:56:48;;;;;;;;;;;5.90;53.00;;;;;;4329297;33;20125;-47
2021/11/26 12:59:14;;;;;;;;;;;5.90;52.50;;;;;;4327537;33;20100;-46
2021/11/26 13:01:50;;;;;;;;;;;5.80;52.70;;;;;;4327804;33;20534;-48
2021/11/26 13:04:16;;;;;;;;;;;5.90;53.10;;;;;;4329076;33;20345;-47
2021/11/26 13:06:42;;;;;;;;;;;5.80;53.40;;;;;;4329666;33;19967;-37
2021/11/26 13:09:09;;;;;;;;;;;5.80;53.70;;;;;;4329553;33;19977;-47
2021/11/26 13:11:43;;;;;;;;;;;5.80;53.90;;;;;;4328928;33;19997;-48
2021/11/26 13:14:09;;;;;;;;;;;5.70;54.10;;;;;;4329885;33;19968;-47
2021/11/26 13:16:36;;;;;;;;;;;5.70;54.30;;;;;;4329315;33;19967;-48
2021/11/26 13:19:03;;;;;;;;;;;5.70;54.50;;;;;;4329030;33;19967;-42
2021/11/26 13:21:29;;;;;;;;;;;5.70;54.80;;;;;;4353643;32;20380;-49
2021/11/26 13:23:55;;;;;;;;;;;5.70;55.00;;;;;;4355606;32;19994;-50
2021/11/26 13:26:21;;;;;;;;;;;5.70;55.20;;;;;;4356197;32;20051;-49
2021/11/26 13:28:50;;;;;;;;;;;5.70;55.40;;;;;;4331250;32;20031;-47
2021/11/26 13:31:18;;;;;;;;;;;5.70;55.60;;;;;;4356286;32;19970;-51
2021/11/26 13:33:46;;;;;;;;;;;5.70;55.60;;;;;;4355877;32;20422;-39
2021/11/26 13:36:14;;;;;;;;;;;5.70;55.80;;;;;;4356077;32;20451;-50
2021/11/26 13:38:45;;;;;;;;;;;5.60;56.00;;;;;;4355884;32;20038;-51
2021/11/26 13:41:14;;;;;;;;;;;5.60;56.10;;;;;;4343600;32;20013;-48
2021/11/26 13:43:43;;;;;;;;;;;5.60;56.10;;;;;;4356247;32;20050;-47
2021/11/26 13:46:29;;;;;;;;;;;5.60;56.30;;;;;;4355792;32;20060;-49
2021/11/26 13:48:58;;;;;;;;;;;5.60;56.30;;;;;;4355769;32;19992;-48
2021/11/26 13:51:33;;;;;;;;;;;5.60;56.30;;;;;;4355634;32;19975;-50
2021/11/26 13:54:08;;;;;;;;;;;5.60;56.30;;;;;;4343412;32;20063;-48
2021/11/26 13:56:39;;;;;;;;;;;5.60;56.40;;;;;;4358313;32;20106;-50
2021/11/26 13:59:07;;;;;;;;;;;5.50;56.30;;;;;;4358276;32;19974;-53
2021/11/26 14:01:35;;;;;;;;;;;5.50;56.40;;;;;;4358123;32;20062;-48
2021/11/26 14:04:10;;;;;;;;;;;5.50;56.60;;;;;;4358290;32;19959;-47
2021/11/26 14:06:38;;;;;;;;;;;5.50;56.80;;;;;;4358331;32;19997;-53
2021/11/26 14:09:09;;;;;;;;;;;5.50;56.90;;;;;;4356760;32;19982;-48
2021/11/26 14:11:43;;;;;;;;;;;5.50;57.10;;;;;;4357756;32;19978;-51
2021/11/26 14:14:14;;;;;;;;;;;5.40;57.10;;;;;;4358332;32;19971;-47
2021/11/26 14:16:48;;;;;;;;;;;5.50;57.30;;;;;;4358366;32;19973;-46
2021/11/26 14:19:25;;;;;;;;;;;5.40;57.30;;;;;;4358499;32;19970;-46
2021/11/26 14:21:55;;;;;;;;;;;5.40;57.40;;;;;;4315607;33;20027;-50
2021/11/26 14:24:33;;;;;;;;;;;5.40;57.50;;;;;;4328839;33;20427;-48
2021/11/26 14:26:59;;;;;;;;;;;5.40;57.60;;;;;;4326898;33;20359;-49
2021/11/26 14:29:26;;;;;;;;;;;5.40;57.60;;;;;;4328595;33;20439;-47
2021/11/26 14:31:52;;;;;;;;;;;5.40;57.70;;;;;;4310712;33;19978;-49
2021/11/26 14:34:18;;;;;;;;;;;5.40;57.80;;;;;;4311439;33;19967;-43
2021/11/26 14:36:46;;;;;;;;;;;5.40;57.90;;;;;;4311326;33;20435;-51
2021/11/26 14:39:12;;;;;;;;;;;5.30;57.90;;;;;;4311280;33;20094;-48
2021/11/26 14:41:39;;;;;;;;;;;5.30;57.90;;;;;;4310928;33;20003;-46
2021/11/26 14:44:09;;;;;;;;;;;5.30;57.90;;;;;;4311256;33;19986;-49
2021/11/26 14:46:54;;;;;;;;;;;5.30;57.90;;;;;;4311213;33;19987;-47
2021/11/26 14:49:22;;;;;;;;;;;5.30;57.90;;;;;;4310634;33;20475;-52
2021/11/26 14:51:49;;;;;;;;;;;5.30;57.90;;;;;;4310538;33;20458;-46
2021/11/26 14:54:19;;;;;;;;;;;5.30;57.90;;;;;;4310943;33;19971;-47